Time;durP1;ratioP1;P1;durP2;ratioP2;P2;SDS_P1;SDS_P2;PMS_P1;PMS_P2;Temp;Humidity;BMP_temperature;BMP_pressure;BME280_temperature;BME280_humidity;BME280_pressure;Samples;Min_cycle;Max_cycle;Signal;HPM_P1;HPM_P2
2023/03/08 00:01:15;;;;;;;9.32;4.20;;;;;;;2.80;60.43;95870.66;5070197;28;20166;-55
2023/03/08 00:03:42;;;;;;;8.13;3.60;;;;;;;2.84;60.55;95879.84;5073326;28;20081;-56
2023/03/08 00:06:14;;;;;;;9.20;4.30;;;;;;;2.95;59.75;95880.81;5074516;28;20040;-55
2023/03/08 00:08:41;;;;;;;8.55;3.92;;;;;;;2.81;60.48;95878.44;5073696;28;20124;-57
2023/03/08 00:11:11;;;;;;;8.43;4.03;;;;;;;2.82;60.83;95885.41;5083993;28;20759;-57
2023/03/08 00:13:38;;;;;;;8.85;3.53;;;;;;;2.86;60.44;95880.38;5081338;28;20028;-56
2023/03/08 00:16:07;;;;;;;9.98;4.43;;;;;;;2.80;60.35;95879.47;5078020;28;20040;-55
2023/03/08 00:18:35;;;;;;;7.68;4.13;;;;;;;2.76;60.83;95872.19;5072856;28;20171;-55
2023/03/08 00:21:08;;;;;;;11.13;4.47;;;;;;;2.71;61.05;95879.06;5074321;28;20185;-57
2023/03/08 00:23:34;;;;;;;8.60;4.05;;;;;;;2.56;61.29;95882.25;5082798;28;20068;-57
2023/03/08 00:26:02;;;;;;;9.65;4.38;;;;;;;2.38;62.16;95887.75;5079725;28;20036;-57
2023/03/08 00:28:28;;;;;;;8.60;4.47;;;;;;;2.47;61.57;95889.03;5083036;28;20044;-55
2023/03/08 00:30:59;;;;;;;8.25;4.43;;;;;;;2.35;62.14;95897.03;5078663;28;20093;-54
2023/03/08 00:33:26;;;;;;;10.32;4.20;;;;;;;2.35;62.14;95907.72;5071297;28;20618;-52
2023/03/08 00:35:55;;;;;;;9.60;4.25;;;;;;;2.38;61.97;95906.44;5081669;28;20064;-54
2023/03/08 00:38:22;;;;;;;8.35;4.15;;;;;;;2.36;62.28;95901.34;5071651;28;20492;-56
2023/03/08 00:40:48;;;;;;;9.20;4.55;;;;;;;2.38;62.29;95899.25;5075137;28;20043;-58
2023/03/08 00:43:15;;;;;;;8.95;4.53;;;;;;;2.29;62.81;95888.09;5076772;28;20032;-58
2023/03/08 00:45:41;;;;;;;9.38;4.70;;;;;;;2.23;63.08;95877.56;5075459;28;20100;-56
2023/03/08 00:48:08;;;;;;;9.30;4.57;;;;;;;2.14;63.29;95869.91;5080773;28;20625;-58
2023/03/08 00:50:35;;;;;;;6.75;3.88;;;;;;;2.23;62.74;95872.22;5066889;28;20053;-55
2023/03/08 00:53:01;;;;;;;8.05;4.15;;;;;;;2.10;63.16;95859.94;5079204;28;20043;-58
2023/03/08 00:55:28;;;;;;;8.27;4.18;;;;;;;1.92;64.20;95859.06;5081702;28;20046;-56
2023/03/08 00:57:55;;;;;;;9.00;4.68;;;;;;;1.80;64.44;95856.38;5086818;28;20048;-58
2023/03/08 01:00:22;;;;;;;7.47;4.32;;;;;;;1.67;64.48;95855.56;5085280;28;20101;-55
2023/03/08 01:02:49;;;;;;;7.55;4.40;;;;;;;1.65;64.73;95849.66;5080491;28;20072;-55
2023/03/08 01:05:16;;;;;;;9.32;4.75;;;;;;;1.64;64.97;95849.88;5069229;28;20036;-54
2023/03/08 01:07:43;;;;;;;8.43;4.38;;;;;;;1.63;65.22;95845.59;5083392;28;20040;-58
2023/03/08 01:10:10;;;;;;;10.65;4.68;;;;;;;1.64;65.40;95844.56;5078923;28;20094;-56
2023/03/08 01:12:37;;;;;;;9.52;4.47;;;;;;;1.66;65.09;95843.28;5072901;28;20530;-54
2023/03/08 01:15:05;;;;;;;8.75;4.65;;;;;;;1.63;65.35;95843.75;5073810;28;20051;-55
2023/03/08 01:17:32;;;;;;;9.38;4.78;;;;;;;1.60;65.41;95838.06;5064539;28;20503;-56
2023/03/08 01:19:58;;;;;;;8.13;3.85;;;;;;;1.53;65.43;95833.66;5067138;28;20123;-56
2023/03/08 01:22:25;;;;;;;12.73;4.88;;;;;;;1.45;65.58;95830.53;5069322;28;20036;-56
2023/03/08 01:24:53;;;;;;;10.98;5.40;;;;;;;1.35;66.11;95823.91;5070444;28;20036;-55
2023/03/08 01:27:19;;;;;;;10.40;5.90;;;;;;;1.29;66.57;95812.31;5073261;28;20109;-56
2023/03/08 01:29:46;;;;;;;11.02;5.10;;;;;;;1.21;67.67;95809.19;5077470;28;20128;-56
2023/03/08 01:32:12;;;;;;;9.23;5.00;;;;;;;1.19;67.47;95816.59;5070880;28;20036;-55
2023/03/08 01:34:39;;;;;;;12.57;6.57;;;;;;;1.16;68.29;95813.34;5074638;28;20495;-57
2023/03/08 01:37:05;;;;;;;14.30;5.60;;;;;;;1.16;68.70;95807.19;5083785;28;20032;-56
2023/03/08 01:39:32;;;;;;;12.38;6.20;;;;;;;1.11;69.29;95805.22;5084171;28;20438;-57
2023/03/08 01:42:05;;;;;;;14.02;6.00;;;;;;;1.15;69.15;95795.72;5074076;28;20086;-53
2023/03/08 01:45:26;;;;;;;13.57;6.13;;;;;;;1.21;69.21;95793.97;5081048;28;20557;-57
2023/03/08 01:47:53;;;;;;;14.43;6.22;;;;;;;1.27;69.04;95790.41;5017828;28;20207;-54
2023/03/08 01:50:24;;;;;;;15.50;8.13;;;;;;;1.23;69.21;95785.75;5072000;28;20051;-54
2023/03/08 01:52:53;;;;;;;13.32;6.40;;;;;;;1.11;69.75;95775.88;5070590;28;20591;-56
2023/03/08 01:55:21;;;;;;;14.40;6.63;;;;;;;1.06;70.29;95781.09;5071468;28;20044;-55
2023/03/08 01:57:52;;;;;;;10.82;5.22;;;;;;;1.14;70.10;95780.78;5071078;28;20503;-56
2023/03/08 02:00:23;;;;;;;;;;;;;;;1.10;70.24;95760.94;5071928;28;20063;-52
2023/03/08 02:03:01;;;;;;;;;;;;;;;1.17;70.23;95772.31;5081585;28;19968;-55
2023/03/08 02:05:29;;;;;;;8.23;4.10;;;;;;;1.12;70.29;95774.88;5071455;28;20529;-55
2023/03/08 02:08:03;;;;;;;12.80;6.68;;;;;;;1.17;70.43;95785.66;5073872;28;20083;-56
2023/03/08 02:10:34;;;;;;;14.25;7.47;;;;;;;1.14;70.53;95775.44;5069148;28;20032;-53
2023/03/08 02:13:03;;;;;;;13.93;7.07;;;;;;;1.14;70.91;95790.63;5073489;28;20032;-56
2023/03/08 02:15:30;;;;;;;14.05;6.65;;;;;;;1.20;70.98;95778.22;5071414;28;20063;-54
2023/03/08 02:17:56;;;;;;;15.88;7.28;;;;;;;1.19;70.65;95780.09;5070482;28;20041;-55
2023/03/08 02:20:29;;;;;;;16.50;7.15;;;;;;;1.16;71.21;95762.69;5070826;28;20047;-54
2023/03/08 02:23:07;;;;;;;17.60;8.57;;;;;;;1.14;71.53;95758.66;5073126;28;20085;-54
2023/03/08 02:25:34;;;;;;;15.30;7.05;;;;;;;1.12;71.29;95742.88;5067984;28;20044;-57
2023/03/08 02:28:02;;;;;;;13.80;7.93;;;;;;;1.08;72.20;95754.22;5069940;28;20088;-57
2023/03/08 02:30:32;;;;;;;15.02;7.30;;;;;;;1.04;72.51;95765.34;5072864;28;20048;-57
2023/03/08 02:32:58;;;;;;;11.98;7.18;;;;;;;1.10;72.55;95760.16;5073485;28;20098;-56
2023/03/08 02:35:27;;;;;;;14.63;7.22;;;;;;;1.13;72.39;95757.00;5078215;28;20097;-55
2023/03/08 02:37:54;;;;;;;16.65;8.00;;;;;;;1.06;72.24;95751.00;5070021;28;20041;-55
2023/03/08 02:40:21;;;;;;;13.15;7.50;;;;;;;1.08;72.94;95743.56;5077137;28;20043;-56
2023/03/08 02:42:47;;;;;;;12.07;5.75;;;;;;;1.16;72.27;95738.72;5068219;28;20045;-56
2023/03/08 02:45:14;;;;;;;14.05;7.40;;;;;;;1.13;72.60;95747.16;5076392;28;20048;-57
2023/03/08 02:47:41;;;;;;;13.70;6.43;;;;;;;1.13;72.53;95741.81;5071636;28;20047;-56
2023/03/08 02:50:08;;;;;;;14.55;7.72;;;;;;;1.13;72.53;95739.16;5060236;28;20040;-55
2023/03/08 02:52:35;;;;;;;13.40;7.65;;;;;;;1.10;72.92;95730.81;5066911;28;21494;-52
2023/03/08 02:55:02;;;;;;;14.98;7.10;;;;;;;1.14;72.55;95727.44;5074721;28;20495;-52
2023/03/08 02:57:29;;;;;;;14.82;8.02;;;;;;;1.12;72.85;95734.88;5066623;28;20048;-53
2023/03/08 02:59:55;;;;;;;14.70;8.48;;;;;;;1.06;73.18;95730.47;5063103;28;20098;-55
2023/03/08 03:02:24;;;;;;;16.33;7.57;;;;;;;1.13;72.96;95719.69;5067578;28;20047;-54
2023/03/08 03:04:51;;;;;;;16.55;7.70;;;;;;;1.17;73.03;95713.66;5064992;28;20034;-55
2023/03/08 03:07:17;;;;;;;14.48;6.80;;;;;;;1.12;73.07;95710.88;5064892;28;20161;-56
2023/03/08 03:09:44;;;;;;;14.13;7.22;;;;;;;1.22;72.70;95698.81;5064486;28;20067;-55
2023/03/08 03:12:12;;;;;;;17.40;8.05;;;;;;;1.22;72.48;95690.81;5069857;28;20040;-53
2023/03/08 03:14:40;;;;;;;14.25;6.72;;;;;;;1.21;72.57;95682.00;5064699;28;20565;-58
2023/03/08 03:17:07;;;;;;;13.02;6.25;;;;;;;1.25;72.27;95679.69;5072856;28;20507;-55
2023/03/08 03:19:33;;;;;;;16.30;6.40;;;;;;;1.27;71.90;95670.41;5073044;28;20047;-55
2023/03/08 03:22:00;;;;;;;15.73;6.75;;;;;;;1.22;71.78;95664.16;5074209;28;20534;-54
2023/03/08 03:24:28;;;;;;;15.88;6.70;;;;;;;1.29;71.29;95670.19;5079468;28;20132;-54
2023/03/08 03:26:57;;;;;;;13.75;6.20;;;;;;;1.32;71.46;95668.91;5087084;28;20167;-55
2023/03/08 03:29:26;;;;;;;15.88;6.97;;;;;;;1.37;70.39;95669.78;5085067;28;20044;-55
2023/03/08 03:32:02;;;;;;;14.27;6.47;;;;;;;1.31;70.20;95665.41;5072330;28;20458;-54
2023/03/08 03:34:29;;;;;;;11.32;5.72;;;;;;;1.30;70.66;95666.47;5064642;28;20105;-55
2023/03/08 03:36:56;;;;;;;11.45;5.95;;;;;;;1.30;70.00;95661.94;5069039;28;20535;-55
2023/03/08 03:39:23;;;;;;;10.30;5.53;;;;;;;1.28;70.49;95657.88;5074373;28;20067;-57
2023/03/08 03:41:50;;;;;;;13.45;7.00;;;;;;;1.31;70.08;95652.09;5072792;28;20036;-57
2023/03/08 03:44:17;;;;;;;13.65;5.53;;;;;;;1.21;70.83;95647.34;5071750;28;20032;-54
2023/03/08 03:46:46;;;;;;;11.25;5.47;;;;;;;1.12;71.00;95646.09;5067876;28;20072;-57
2023/03/08 03:49:16;;;;;;;12.05;5.85;;;;;;;1.13;71.52;95651.19;5062043;28;20725;-56
2023/03/08 03:51:45;;;;;;;12.50;6.03;;;;;;;1.14;71.73;95650.13;5076287;28;20442;-53
2023/03/08 03:54:30;;;;;;;14.73;5.75;;;;;;;1.07;71.25;95643.31;5076032;28;20040;-55
2023/03/08 03:56:59;;;;;;;14.88;6.28;;;;;;;1.11;72.12;95639.94;5077969;28;20589;-53
2023/03/08 03:59:29;;;;;;;;;;;;;;;1.09;71.21;95635.88;5089643;28;20040;-55
2023/03/08 04:01:56;;;;;;;11.90;5.32;;;;;;;1.08;71.68;95631.59;5082857;28;19980;-54
2023/03/08 04:04:31;;;;;;;10.70;5.93;;;;;;;1.08;71.49;95636.94;5075745;28;20043;-53
2023/03/08 04:06:57;;;;;;;14.57;6.88;;;;;;;0.86;72.39;95633.03;5068008;28;20047;-55
2023/03/08 04:09:28;;;;;;;12.23;6.53;;;;;;;0.72;73.21;95634.28;5078809;28;20045;-55
2023/03/08 04:12:06;;;;;;;14.27;6.53;;;;;;;0.62;74.58;95627.69;5075766;28;20040;-56
2023/03/08 04:14:34;;;;;;;12.38;6.75;;;;;;;0.66;74.11;95630.69;5073110;28;20532;-52
2023/03/08 04:17:02;;;;;;;13.10;6.32;;;;;;;0.70;74.14;95621.19;5076875;28;20043;-55
2023/03/08 04:19:36;;;;;;;13.70;7.18;;;;;;;0.79;73.96;95616.34;5082600;28;20817;-55
2023/03/08 04:22:04;;;;;;;12.45;6.53;;;;;;;0.90;72.93;95622.72;5077142;28;20090;-56
2023/03/08 04:24:37;;;;;;;13.23;6.15;;;;;;;0.97;72.58;95630.56;5073565;28;20050;-57
2023/03/08 04:27:08;;;;;;;12.00;6.38;;;;;;;1.07;72.94;95630.78;5075496;28;20135;-55
2023/03/08 04:29:35;;;;;;;13.23;7.35;;;;;;;1.00;72.98;95632.78;5083221;28;20101;-55
2023/03/08 04:32:02;;;;;;;10.50;5.95;;;;;;;0.99;73.86;95618.63;5056403;28;20037;-53
2023/03/08 04:34:38;;;;;;;14.88;6.80;;;;;;;1.04;73.22;95612.63;5083080;28;20050;-55
2023/03/08 04:37:06;;;;;;;14.95;6.85;;;;;;;1.04;72.57;95610.75;5075288;28;20040;-55
2023/03/08 04:39:32;;;;;;;12.95;5.82;;;;;;;1.10;72.40;95603.66;5077493;28;20162;-54
2023/03/08 04:41:59;;;;;;;13.20;6.65;;;;;;;1.10;72.98;95597.53;5086221;28;20107;-56
2023/03/08 04:44:29;;;;;;;13.27;6.00;;;;;;;1.17;73.38;95587.53;5085862;28;20062;-57
2023/03/08 04:46:56;;;;;;;11.45;6.43;;;;;;;1.11;72.31;95581.28;5080144;28;20055;-52
2023/03/08 04:49:33;;;;;;;10.60;6.05;;;;;;;1.15;72.61;95568.31;5089878;28;20036;-56
2023/03/08 04:52:01;;;;;;;10.85;5.45;;;;;;;1.25;72.57;95555.16;5084396;28;20127;-57
2023/03/08 04:54:29;;;;;;;14.68;6.80;;;;;;;1.30;72.28;95554.47;5081886;28;20751;-54
2023/03/08 04:57:01;;;;;;;15.27;7.05;;;;;;;1.17;72.65;95553.69;5086974;28;20163;-54
2023/03/08 04:59:29;;;;;;;13.07;6.20;;;;;;;1.13;72.89;95554.41;5083540;28;20045;-57
2023/03/08 05:01:58;;;;;;;15.00;7.38;;;;;;;1.18;72.60;95554.50;5071225;28;20406;-54
2023/03/08 05:04:25;;;;;;;14.27;6.78;;;;;;;1.19;72.89;95544.66;5084155;28;20032;-58
2023/03/08 05:06:52;;;;;;;13.48;6.43;;;;;;;1.16;73.19;95544.09;5092121;28;20498;-55
2023/03/08 05:09:23;;;;;;;13.05;7.57;;;;;;;1.17;72.28;95553.69;5097241;28;20644;-55
2023/03/08 05:11:51;;;;;;;12.55;6.57;;;;;;;1.21;72.32;95542.56;5084093;28;20519;-55
2023/03/08 05:14:17;;;;;;;11.70;5.78;;;;;;;1.21;72.86;95548.69;5079938;28;20036;-56
2023/03/08 05:16:44;;;;;;;15.27;5.95;;;;;;;1.24;72.28;95553.56;5090488;28;20039;-55
2023/03/08 05:19:10;;;;;;;13.35;6.07;;;;;;;1.24;72.53;95542.91;5084919;28;20094;-54
2023/03/08 05:21:44;;;;;;;10.80;5.75;;;;;;;1.23;72.72;95540.47;5080018;28;20046;-57
2023/03/08 05:24:12;;;;;;;12.13;6.13;;;;;;;1.26;72.32;95540.00;5082052;28;20520;-55
2023/03/08 05:26:39;;;;;;;11.75;6.00;;;;;;;1.29;72.67;95539.53;5088361;28;20556;-55
2023/03/08 05:29:07;;;;;;;11.18;6.00;;;;;;;1.39;72.10;95530.88;5062774;28;20075;-57
2023/03/08 05:31:36;;;;;;;11.02;5.35;;;;;;;1.38;71.74;95530.09;5076988;28;20051;-57
2023/03/08 05:34:04;;;;;;;16.65;6.28;;;;;;;1.38;71.67;95527.44;5080318;28;20051;-55
2023/03/08 05:36:35;;;;;;;12.32;5.03;;;;;;;1.42;71.81;95514.41;5087289;28;20064;-56
2023/03/08 05:39:05;;;;;;;9.75;5.15;;;;;;;1.45;71.61;95516.59;5078172;28;20048;-56
2023/03/08 05:41:41;;;;;;;11.35;5.57;;;;;;;1.37;71.76;95512.44;5083703;28;20534;-55
2023/03/08 05:44:09;;;;;;;12.13;6.22;;;;;;;1.39;71.94;95518.38;5079283;28;20064;-56
2023/03/08 05:46:38;;;;;;;11.05;5.55;;;;;;;1.48;71.05;95523.31;5086759;28;20138;-55
2023/03/08 05:49:06;;;;;;;9.73;5.97;;;;;;;1.36;71.54;95518.84;5082440;28;20122;-56
2023/03/08 05:51:34;;;;;;;11.80;6.00;;;;;;;1.39;72.03;95522.88;5090892;28;20134;-57
2023/03/08 05:54:01;;;;;;;12.55;6.97;;;;;;;1.33;71.93;95530.00;5082610;28;20713;-54
2023/03/08 05:56:30;;;;;;;15.40;6.50;;;;;;;1.31;72.05;95526.75;5086439;28;20114;-56
2023/03/08 05:59:05;;;;;;;11.27;5.45;;;;;;;1.50;71.67;95526.53;5083791;28;20036;-55
2023/03/08 06:01:32;;;;;;;14.73;6.05;;;;;;;1.42;72.13;95525.06;5090557;28;20051;-54
2023/03/08 06:04:08;;;;;;;11.70;6.32;;;;;;;1.39;72.20;95521.03;5088264;28;20853;-56
2023/03/08 06:06:38;;;;;;;13.43;6.50;;;;;;;1.44;72.08;95515.00;5086653;28;20051;-53
2023/03/08 06:09:05;;;;;;;11.90;7.07;;;;;;;1.48;71.55;95512.66;5084889;28;20125;-56
2023/03/08 06:11:34;;;;;;;9.68;5.50;;;;;;;1.51;71.96;95515.63;5073397;28;20499;-54
2023/03/08 06:14:01;;;;;;;13.85;7.57;;;;;;;1.47;71.88;95505.69;5090685;28;20076;-56
2023/03/08 06:16:30;;;;;;;12.98;6.72;;;;;;;1.59;72.49;95511.78;5091067;28;20673;-54
2023/03/08 06:18:57;;;;;;;13.02;6.95;;;;;;;1.64;71.53;95508.38;5082887;28;20032;-57
2023/03/08 06:21:24;;;;;;;13.13;5.93;;;;;;;1.85;70.29;95506.06;5079077;28;20565;-57
2023/03/08 06:23:57;;;;;;;12.93;6.32;;;;;;;1.92;70.22;95491.47;5087365;28;20055;-57
2023/03/08 06:26:24;;;;;;;12.30;6.30;;;;;;;1.83;70.36;95495.63;5080708;28;20055;-56
2023/03/08 06:28:51;;;;;;;14.02;6.75;;;;;;;1.88;70.65;95484.22;5075372;28;20130;-54
2023/03/08 06:31:18;;;;;;;12.57;6.43;;;;;;;1.93;70.68;95481.63;5075770;28;20147;-55
2023/03/08 06:33:45;;;;;;;12.55;6.60;;;;;;;1.97;71.19;95479.28;5079071;28;20036;-55
2023/03/08 06:36:19;;;;;;;13.50;6.60;;;;;;;2.03;70.62;95471.09;5085468;28;20036;-57
2023/03/08 06:38:48;;;;;;;12.38;5.88;;;;;;;2.07;70.77;95474.09;5085588;28;20105;-56
2023/03/08 06:41:17;;;;;;;14.23;6.63;;;;;;;2.14;70.34;95476.59;5084394;28;20066;-58
2023/03/08 06:43:48;;;;;;;12.23;6.03;;;;;;;2.23;70.01;95477.78;5076225;28;20135;-58
2023/03/08 06:46:16;;;;;;;12.85;6.57;;;;;;;2.26;69.67;95473.81;5078104;28;20714;-56
2023/03/08 06:48:44;;;;;;;11.10;6.13;;;;;;;2.21;69.60;95463.88;5074106;28;20096;-56
2023/03/08 06:51:11;;;;;;;12.88;7.32;;;;;;;2.24;69.72;95459.91;5081290;28;20044;-58
2023/03/08 06:53:41;;;;;;;13.03;6.53;;;;;;;2.44;68.86;95462.84;5082254;28;20679;-58
2023/03/08 06:56:12;;;;;;;27.70;14.05;;;;;;;2.28;70.12;95459.16;5076431;28;20083;-57
2023/03/08 06:58:39;;;;;;;11.82;6.60;;;;;;;2.45;69.11;95461.81;5075100;28;20579;-56
2023/03/08 07:01:08;;;;;;;12.75;6.88;;;;;;;2.28;69.95;95464.50;5080505;28;20094;-57
2023/03/08 07:03:35;;;;;;;15.70;7.63;;;;;;;2.21;70.93;95459.34;5082431;28;20043;-54
2023/03/08 07:06:04;;;;;;;14.75;6.72;;;;;;;2.19;72.12;95450.78;5078305;28;20524;-56
2023/03/08 07:08:31;;;;;;;23.98;10.57;;;;;;;2.27;73.14;95451.41;5073119;28;20047;-57
2023/03/08 07:10:58;;;;;;;15.68;7.10;;;;;;;2.27;74.14;95449.53;5071880;28;20067;-57
2023/03/08 07:13:25;;;;;;;13.57;6.22;;;;;;;2.35;75.50;95445.63;5072698;28;20062;-57
2023/03/08 07:15:52;;;;;;;18.15;7.65;;;;;;;2.37;76.32;95448.88;5074179;28;20045;-56
2023/03/08 07:18:19;;;;;;;13.43;6.93;;;;;;;2.32;79.59;95433.59;5076139;28;20055;-57
2023/03/08 07:20:51;;;;;;;55.58;19.23;;;;;;;2.31;79.43;95425.81;5078643;28;20666;-57
2023/03/08 07:23:18;;;;;;;13.18;5.53;;;;;;;2.39;79.61;95412.03;5078275;28;20532;-56
2023/03/08 07:25:44;;;;;;;17.25;7.50;;;;;;;2.41;79.67;95422.47;5063100;28;20116;-56
2023/03/08 07:28:11;;;;;;;15.07;7.95;;;;;;;2.36;79.86;95427.75;5057933;28;20048;-55
2023/03/08 07:30:37;;;;;;;42.95;16.63;;;;;;;2.36;80.41;95404.50;5074540;28;20445;-56
2023/03/08 07:33:04;;;;;;;114.35;38.53;;;;;;;2.38;81.07;95398.91;5079310;28;20044;-56
2023/03/08 07:35:30;;;;;;;47.90;19.13;;;;;;;2.31;82.36;95393.75;5078356;28;20045;-56
2023/03/08 07:37:57;;;;;;;11.38;6.30;;;;;;;2.25;82.93;95392.88;5085938;28;20035;-56
2023/03/08 07:40:23;;;;;;;12.85;6.80;;;;;;;2.38;83.84;95402.41;5081527;28;20567;-58
2023/03/08 07:42:50;;;;;;;12.02;6.75;;;;;;;2.25;87.35;95402.78;5079993;28;20054;-56
2023/03/08 07:45:38;;;;;;;12.50;6.25;;;;;;;2.12;89.54;95393.25;5057398;28;20055;-57
2023/03/08 07:48:05;;;;;;;14.23;6.45;;;;;;;2.24;88.84;95380.59;5075179;28;20056;-56
2023/03/08 07:50:32;;;;;;;15.52;6.18;;;;;;;2.24;90.55;95374.47;5087117;28;20122;-54
2023/03/08 07:52:59;;;;;;;10.30;5.90;;;;;;;2.32;90.90;95379.38;5081134;28;20058;-56
2023/03/08 07:55:26;;;;;;;10.85;5.82;;;;;;;2.46;90.56;95377.94;5077213;28;20064;-56
2023/03/08 07:57:52;;;;;;;13.55;6.47;;;;;;;2.25;92.17;95366.19;5088720;28;20051;-56
2023/03/08 08:00:19;;;;;;;12.52;5.88;;;;;;;2.30;94.02;95352.91;5080403;28;20499;-58
2023/03/08 08:02:46;;;;;;;11.43;6.40;;;;;;;2.32;93.44;95352.66;5088858;28;20036;-57
2023/03/08 08:05:13;;;;;;;10.88;5.35;;;;;;;2.46;94.10;95353.88;5079573;28;20127;-59
2023/03/08 08:07:40;;;;;;;12.60;6.55;;;;;;;2.37;93.98;95349.22;5079916;28;20097;-58
2023/03/08 08:10:07;;;;;;;12.20;5.80;;;;;;;2.41;94.20;95337.00;5082320;28;20036;-57
2023/03/08 08:12:33;;;;;;;12.23;5.68;;;;;;;2.49;95.85;95331.22;5076998;28;20782;-59
2023/03/08 08:15:00;;;;;;;13.25;6.10;;;;;;;2.50;95.94;95329.34;5087148;28;20653;-57
2023/03/08 08:17:26;;;;;;;12.20;5.80;;;;;;;2.34;95.27;95327.31;5086955;28;20064;-59
2023/03/08 08:19:53;;;;;;;10.38;5.70;;;;;;;2.38;95.74;95314.28;5083914;28;20498;-59
2023/03/08 08:22:19;;;;;;;12.02;5.75;;;;;;;2.46;95.61;95305.81;5078104;28;20036;-59
2023/03/08 08:24:46;;;;;;;13.73;6.60;;;;;;;2.47;95.44;95286.03;5088475;28;20032;-57
2023/03/08 08:27:12;;;;;;;13.40;6.07;;;;;;;2.49;95.87;95290.31;5086276;28;20043;-57
2023/03/08 08:29:42;;;;;;;14.23;7.38;;;;;;;2.20;96.34;95288.69;5091048;28;20067;-55
2023/03/08 08:32:09;;;;;;;12.35;6.90;;;;;;;2.19;98.31;95293.25;5083134;28;20221;-55
2023/03/08 08:34:35;;;;;;;13.05;6.63;;;;;;;2.31;98.37;95289.59;5088433;28;20067;-53
2023/03/08 08:37:03;;;;;;;14.05;7.05;;;;;;;2.42;99.40;95280.66;5086342;28;20044;-56
2023/03/08 08:39:29;;;;;;;15.02;7.80;;;;;;;2.53;100.00;95278.06;5078537;28;20075;-55
2023/03/08 08:41:55;;;;;;;13.55;6.90;;;;;;;2.55;99.96;95271.41;5084032;28;20052;-55
2023/03/08 08:44:22;;;;;;;11.88;6.63;;;;;;;2.77;97.93;95280.44;5084221;28;20131;-57
2023/03/08 08:46:49;;;;;;;12.93;7.40;;;;;;;2.51;100.00;95274.88;5090889;28;20119;-58
2023/03/08 08:49:15;;;;;;;12.15;7.07;;;;;;;2.64;100.00;95268.28;5080956;28;20113;-57
2023/03/08 08:51:42;;;;;;;13.90;7.72;;;;;;;2.68;100.00;95264.06;5079997;28;20044;-58
2023/03/08 08:54:08;;;;;;;14.98;6.85;;;;;;;2.68;100.00;95250.69;5082809;28;20039;-57
2023/03/08 08:56:41;;;;;;;13.10;6.80;;;;;;;2.90;100.00;95253.28;5087924;28;20048;-56
2023/03/08 08:59:10;;;;;;;12.32;6.90;;;;;;;2.80;100.00;95239.84;5086401;28;20059;-55
2023/03/08 09:01:42;;;;;;;15.48;7.53;;;;;;;2.95;100.00;95239.97;5081275;28;20071;-57
2023/03/08 09:04:10;;;;;;;15.13;8.20;;;;;;;3.10;100.00;95233.13;5093583;28;20063;-57
2023/03/08 09:06:38;;;;;;;17.90;9.15;;;;;;;3.02;100.00;95231.72;5092552;28;20074;-56
2023/03/08 09:09:05;;;;;;;13.02;7.60;;;;;;;3.10;100.00;95239.25;5080452;28;20495;-58
2023/03/08 09:11:32;;;;;;;14.68;7.85;;;;;;;2.93;100.00;95231.41;5085738;28;20048;-54
2023/03/08 09:14:11;;;;;;;20.20;9.18;;;;;;;3.05;100.00;95233.88;5081905;28;20180;-55
2023/03/08 09:16:37;;;;;;;17.27;8.05;;;;;;;3.11;100.00;95229.38;5089936;28;20035;-56
2023/03/08 09:19:04;;;;;;;16.35;8.63;;;;;;;2.91;100.00;95224.69;5076219;28;20048;-55
2023/03/08 09:21:32;;;;;;;15.90;9.82;;;;;;;2.85;100.00;95229.19;5082919;28;20048;-57
2023/03/08 09:24:01;;;;;;;16.90;9.23;;;;;;;3.02;100.00;95217.56;5078870;28;20578;-57
2023/03/08 09:26:32;;;;;;;19.40;10.02;;;;;;;3.02;100.00;95223.69;5061565;28;20052;-58
2023/03/08 09:29:03;;;;;;;18.92;9.77;;;;;;;2.96;100.00;95212.19;5075594;28;20044;-58
2023/03/08 09:31:32;;;;;;;17.42;9.73;;;;;;;3.01;100.00;95197.22;5076877;28;20036;-58
2023/03/08 09:33:59;;;;;;;18.33;9.52;;;;;;;3.18;100.00;95191.72;5092565;28;20744;-57
2023/03/08 09:36:27;;;;;;;22.40;11.20;;;;;;;3.04;100.00;95189.50;5080665;28;20035;-57
2023/03/08 09:38:55;;;;;;;19.38;10.55;;;;;;;3.12;100.00;95191.69;5077919;27;20695;-55
2023/03/08 09:41:44;;;;;;;20.38;10.35;;;;;;;3.10;100.00;95176.97;5084073;28;20040;-58
2023/03/08 09:44:47;;;;;;;20.92;11.43;;;;;;;3.09;100.00;95197.53;5074676;28;20049;-55
2023/03/08 09:47:29;;;;;;;19.52;11.30;;;;;;;3.16;100.00;95172.47;5075205;28;20040;-56
2023/03/08 09:50:15;;;;;;;19.20;9.90;;;;;;;3.29;100.00;95171.19;5080966;28;20198;-56
2023/03/08 09:52:59;;;;;;;19.63;11.15;;;;;;;3.35;100.00;95172.81;5086041;28;20128;-58
2023/03/08 09:55:42;;;;;;;21.58;11.52;;;;;;;3.44;100.00;95160.56;5078234;28;20066;-57
2023/03/08 09:58:44;;;;;;;15.63;9.32;;;;;;;3.67;100.00;95157.69;5087746;28;20784;-57
2023/03/08 10:01:36;;;;;;;19.52;10.77;;;;;;;3.77;100.00;95149.69;5084083;28;20037;-56
2023/03/08 10:04:26;;;;;;;17.77;10.20;;;;;;;3.92;100.00;95143.59;5089969;28;20046;-55
2023/03/08 10:06:53;;;;;;;17.13;9.27;;;;;;;3.97;100.00;95143.59;5085220;28;20146;-57
2023/03/08 10:09:35;;;;;;;18.92;9.05;;;;;;;3.94;100.00;95138.75;5078453;28;20113;-56
2023/03/08 10:12:15;;;;;;;15.98;9.25;;;;;;;3.95;100.00;95136.91;5085950;28;21864;-57
2023/03/08 10:14:49;;;;;;;17.63;9.73;;;;;;;4.08;100.00;95144.41;5081049;28;20039;-58
2023/03/08 10:17:20;;;;;;;15.80;8.73;;;;;;;4.23;100.00;95137.44;5081009;28;20043;-55
2023/03/08 10:20:10;;;;;;;;;;;;;;;4.40;100.00;95137.22;5082261;28;20521;-54
2023/03/08 10:22:41;;;;;;;14.02;6.43;;;;;;;4.60;100.00;95136.41;5084948;28;19923;-56
2023/03/08 10:25:17;;;;;;;10.68;5.30;;;;;;;4.82;100.00;95133.44;5080838;28;20096;-55
2023/03/08 10:27:47;;;;;;;8.32;4.57;;;;;;;5.08;100.00;95113.78;5086004;28;20124;-57
2023/03/08 10:30:16;;;;;;;8.07;4.47;;;;;;;5.33;100.00;95125.53;5073943;28;20040;-55
2023/03/08 10:32:45;;;;;;;8.45;4.43;;;;;;;5.48;100.00;95108.56;5090968;28;20109;-57
2023/03/08 10:35:12;;;;;;;7.13;3.63;;;;;;;5.64;100.00;95109.28;5075478;28;20045;-53
2023/03/08 10:37:39;;;;;;;5.90;2.85;;;;;;;5.70;100.00;95097.47;5084488;28;20058;-58
2023/03/08 10:40:09;;;;;;;4.78;2.33;;;;;;;5.84;100.00;95096.84;5085049;28;20044;-58
2023/03/08 10:42:36;;;;;;;6.53;3.20;;;;;;;5.80;100.00;95098.47;5086782;28;20125;-56
2023/03/08 10:45:14;;;;;;;8.27;2.55;;;;;;;5.91;100.00;95085.78;5082293;28;20052;-58
2023/03/08 10:47:40;;;;;;;4.72;1.92;;;;;;;6.07;100.00;95079.28;5086271;28;20559;-57
2023/03/08 10:50:07;;;;;;;5.35;2.60;;;;;;;6.19;100.00;95084.28;5078218;28;20047;-57
2023/03/08 10:52:34;;;;;;;5.07;2.42;;;;;;;6.24;100.00;95086.91;5081728;28;20098;-54
2023/03/08 10:55:36;;;;;;;4.65;2.05;;;;;;;6.38;100.00;95083.63;5082247;28;20059;-56
2023/03/08 10:58:05;;;;;;;5.15;2.15;;;;;;;6.54;100.00;95086.16;5081570;28;20067;-55
2023/03/08 11:00:37;;;;;;;3.95;1.83;;;;;;;6.66;99.33;95080.41;5079918;28;20052;-56
2023/03/08 11:03:12;;;;;;;4.63;1.70;;;;;;;6.81;98.69;95087.53;5080128;28;20074;-56
2023/03/08 11:05:53;;;;;;;2.45;1.25;;;;;;;7.06;97.54;95083.78;5087515;28;20043;-56
2023/03/08 11:08:32;;;;;;;4.07;1.58;;;;;;;7.34;98.08;95081.28;5074906;28;20106;-58
2023/03/08 11:11:10;;;;;;;2.80;1.30;;;;;;;7.49;96.92;95091.06;5076313;28;20495;-54
2023/03/08 11:13:40;;;;;;;2.78;1.10;;;;;;;7.61;96.61;95101.44;5078679;28;20055;-57
2023/03/08 11:16:07;;;;;;;2.10;1.00;;;;;;;7.61;96.18;95101.44;5075043;28;20032;-56
2023/03/08 11:19:17;;;;;;;2.40;0.95;;;;;;;7.72;95.10;95104.81;5085523;28;20067;-56
2023/03/08 11:21:55;;;;;;;2.00;1.00;;;;;;;7.79;95.53;95115.22;5073927;28;20055;-59
2023/03/08 11:24:38;;;;;;;2.15;0.90;;;;;;;7.89;95.95;95100.81;5078908;28;20048;-58
2023/03/08 11:27:15;;;;;;;1.55;0.70;;;;;;;7.89;94.80;95096.22;5087380;28;20048;-54
2023/03/08 11:29:44;;;;;;;1.88;0.90;;;;;;;7.94;94.39;95100.75;5084567;28;20039;-57
2023/03/08 11:32:18;;;;;;;3.15;1.38;;;;;;;7.99;93.13;95083.72;5079439;28;20093;-58
2023/03/08 11:35:07;;;;;;;1.30;0.68;;;;;;;8.13;92.10;95100.75;5080457;28;20670;-58
2023/03/08 11:37:42;;;;;;;2.00;1.00;;;;;;;8.23;93.68;95099.78;5089502;28;20052;-56
2023/03/08 11:40:24;;;;;;;2.35;0.95;;;;;;;8.21;93.22;95088.47;5071958;28;20572;-57
2023/03/08 11:43:49;;;;;;;1.42;0.60;;;;;;;8.35;92.29;95093.13;5079127;28;20051;-57
2023/03/08 11:46:54;;;;;;;3.65;2.15;;;;;;;8.31;91.13;95095.63;5045823;28;20507;-57
2023/03/08 11:49:39;;;;;;;4.13;1.20;;;;;;;8.39;92.35;95089.56;5082194;28;20036;-55